Time;durP1;ratioP1;P1;durP2;ratioP2;P2;SDS_P1;SDS_P2;PMS_P1;PMS_P2;Temp;Humidity;BMP_temperature;BMP_pressure;BME280_temperature;BME280_humidity;BME280_pressure;Samples;Min_cycle;Max_cycle;Signal;HPM_P1;HPM_P2
2023/03/30 00:01:43;;;;;;;7.13;1.40;;;;;;;;;;4936185;28;20035;-67
2023/03/30 00:04:12;;;;;;;6.38;1.40;;;;;;;;;;4940665;28;20165;-66
2023/03/30 00:06:41;;;;;;;5.63;1.40;;;;;;;;;;4920613;28;20095;-66
2023/03/30 00:09:09;;;;;;;7.05;1.48;;;;;;;;;;4940337;28;20050;-66
2023/03/30 00:11:38;;;;;;;5.47;1.25;;;;;;;;;;4919588;28;20054;-66
2023/03/30 00:14:07;;;;;;;5.78;1.08;;;;;;;;;;4943765;28;20050;-67
2023/03/30 00:16:36;;;;;;;5.47;1.00;;;;;;;;;;4926190;28;20482;-65
2023/03/30 00:19:04;;;;;;;5.43;1.10;;;;;;;;;;4938304;28;20492;-65
2023/03/30 00:21:30;;;;;;;4.75;1.27;;;;;;;;;;4940276;28;20133;-66
2023/03/30 00:23:57;;;;;;;;;;;;;;;;;;4933404;28;20501;-65
2023/03/30 00:26:25;;;;;;;8.95;2.00;;;;;;;;;;4938248;28;20005;-65
2023/03/30 00:28:53;;;;;;;7.35;1.73;;;;;;;;;;4937479;28;20190;-66
2023/03/30 00:31:20;;;;;;;6.15;1.30;;;;;;;;;;4945972;28;20049;-66
2023/03/30 00:33:48;;;;;;;8.45;1.85;;;;;;;;;;4942087;28;20836;-65
2023/03/30 00:36:15;;;;;;;10.02;2.83;;;;;;;;;;4960430;28;20391;-66
2023/03/30 00:38:41;;;;;;;9.25;3.45;;;;;;;;;;4954457;28;20035;-66
2023/03/30 00:41:09;;;;;;;7.80;2.28;;;;;;;;;;4943869;28;20038;-65
2023/03/30 00:43:36;;;;;;;7.78;1.80;;;;;;;;;;4939999;28;20134;-66
2023/03/30 00:46:04;;;;;;;7.05;1.58;;;;;;;;;;4960144;28;20435;-66
2023/03/30 00:48:33;;;;;;;5.15;1.70;;;;;;;;;;4960944;28;20035;-66
2023/03/30 00:51:06;;;;;;;7.43;1.60;;;;;;;;;;4945956;28;20428;-67
2023/03/30 00:53:37;;;;;;;9.48;1.88;;;;;;;;;;4947023;28;20493;-67
2023/03/30 00:56:06;;;;;;;8.18;1.60;;;;;;;;;;4950496;28;20150;-67
2023/03/30 00:58:39;;;;;;;7.43;1.65;;;;;;;;;;4957067;28;20030;-67
2023/03/30 01:01:07;;;;;;;6.50;1.65;;;;;;;;;;4955352;28;20535;-65
2023/03/30 01:03:37;;;;;;;4.78;1.10;;;;;;;;;;4956386;28;20763;-65
2023/03/30 01:06:06;;;;;;;6.43;1.20;;;;;;;;;;4960083;28;20104;-66
2023/03/30 01:08:41;;;;;;;5.70;1.15;;;;;;;;;;4947036;28;20046;-66
2023/03/30 01:11:11;;;;;;;6.72;1.08;;;;;;;;;;4959119;28;20568;-66
2023/03/30 01:13:51;;;;;;;5.57;1.10;;;;;;;;;;4958840;28;20108;-66
2023/03/30 01:16:49;;;;;;;7.80;1.17;;;;;;;;;;4960225;28;20304;-65
2023/03/30 01:19:33;;;;;;;6.07;1.30;;;;;;;;;;4895812;29;20040;-65
2023/03/30 01:22:19;;;;;;;9.60;1.30;;;;;;;;;;4893881;29;20570;-66
2023/03/30 01:25:05;;;;;;;6.10;1.20;;;;;;;;;;4886196;29;20039;-65
2023/03/30 01:27:51;;;;;;;4.72;1.10;;;;;;;;;;4895839;29;20066;-65
2023/03/30 01:30:44;;;;;;;5.55;1.10;;;;;;;;;;4874103;29;20496;-66
2023/03/30 01:33:34;;;;;;;4.45;1.05;;;;;;;;;;4885823;29;20037;-67
2023/03/30 01:36:20;;;;;;;5.70;1.40;;;;;;;;;;4889988;29;20072;-65
2023/03/30 01:39:04;;;;;;;6.03;1.23;;;;;;;;;;4889874;29;21042;-65
2023/03/30 01:41:41;;;;;;;5.07;1.20;;;;;;;;;;4890851;29;20075;-65
2023/03/30 01:44:12;;;;;;;5.95;1.20;;;;;;;;;;4878070;29;20043;-66
2023/03/30 01:47:01;;;;;;;7.03;1.35;;;;;;;;;;4899968;28;20049;-66
2023/03/30 01:49:37;;;;;;;6.78;1.08;;;;;;;;;;4871454;29;20158;-65
2023/03/30 01:52:30;;;;;;;7.53;1.73;;;;;;;;;;4885054;29;20503;-65
2023/03/30 01:55:05;;;;;;;8.02;1.60;;;;;;;;;;4876306;29;20341;-65
2023/03/30 01:57:54;;;;;;;6.05;1.30;;;;;;;;;;4886807;29;20459;-66
2023/03/30 02:00:23;;;;;;;6.65;1.20;;;;;;;;;;4885863;29;20059;-65
2023/03/30 02:02:57;;;;;;;6.88;1.55;;;;;;;;;;4882493;29;20047;-66
2023/03/30 02:05:26;;;;;;;6.15;1.30;;;;;;;;;;4876458;29;20043;-65
2023/03/30 02:08:01;;;;;;;9.32;1.52;;;;;;;;;;4868423;29;20048;-66
2023/03/30 02:10:31;;;;;;;5.07;1.10;;;;;;;;;;4874802;29;20024;-67
2023/03/30 02:12:58;;;;;;;5.00;1.08;;;;;;;;;;4870438;29;21756;-67
2023/03/30 02:15:33;;;;;;;4.57;1.20;;;;;;;;;;4875446;29;20032;-67
2023/03/30 02:18:01;;;;;;;7.93;1.77;;;;;;;;;;4886851;29;20570;-67
2023/03/30 02:20:30;;;;;;;6.22;1.30;;;;;;;;;;4887774;29;20042;-67
2023/03/30 02:23:00;;;;;;;5.25;1.20;;;;;;;;;;4881609;29;20553;-65
2023/03/30 02:25:29;;;;;;;6.60;1.58;;;;;;;;;;4873909;28;20527;-65
2023/03/30 02:27:55;;;;;;;7.53;1.60;;;;;;;;;;4946497;28;20398;-65
2023/03/30 02:30:26;;;;;;;7.93;1.55;;;;;;;;;;4940483;28;20357;-65
2023/03/30 02:32:56;;;;;;;4.70;1.23;;;;;;;;;;4952652;28;20027;-66
2023/03/30 02:35:41;;;;;;;5.95;1.25;;;;;;;;;;4953940;28;20325;-65
2023/03/30 02:38:31;;;;;;;6.63;1.30;;;;;;;;;;4946435;28;20547;-67
2023/03/30 02:41:11;;;;;;;5.80;1.17;;;;;;;;;;4948494;28;20042;-65
2023/03/30 02:43:43;;;;;;;6.93;1.60;;;;;;;;;;4953511;28;20030;-65
2023/03/30 02:46:28;;;;;;;9.00;1.50;;;;;;;;;;4930859;28;20035;-67
2023/03/30 02:49:09;;;;;;;9.48;1.80;;;;;;;;;;4942995;28;20023;-66
2023/03/30 02:51:50;;;;;;;6.60;1.50;;;;;;;;;;4949561;28;20041;-66
2023/03/30 02:54:35;;;;;;;7.13;1.30;;;;;;;;;;4929462;28;20315;-65
2023/03/30 02:57:12;;;;;;;6.90;1.50;;;;;;;;;;4960489;28;20380;-65
2023/03/30 02:59:58;;;;;;;8.20;1.75;;;;;;;;;;4934560;28;20102;-66
2023/03/30 03:02:38;;;;;;;8.13;1.27;;;;;;;;;;4934281;28;20073;-66
2023/03/30 03:05:10;;;;;;;8.07;1.52;;;;;;;;;;4951768;28;20110;-66
2023/03/30 03:07:39;;;;;;;5.85;1.25;;;;;;;;;;4934902;28;20038;-67
2023/03/30 03:10:07;;;;;;;6.47;1.33;;;;;;;;;;4936714;28;20413;-67
2023/03/30 03:12:36;;;;;;;4.30;1.30;;;;;;;;;;4946772;28;20058;-67
2023/03/30 03:15:04;;;;;;;9.40;1.40;;;;;;;;;;4932336;28;20041;-67
2023/03/30 03:17:37;;;;;;;6.40;1.30;;;;;;;;;;4942022;28;20418;-67
2023/03/30 03:20:10;;;;;;;7.25;2.00;;;;;;;;;;4942946;28;20083;-67
2023/03/30 03:22:38;;;;;;;6.25;1.58;;;;;;;;;;4944474;28;20043;-67
2023/03/30 03:25:05;;;;;;;6.15;1.60;;;;;;;;;;4932066;28;20397;-67
2023/03/30 03:27:34;;;;;;;5.93;1.40;;;;;;;;;;4947174;28;20046;-67
2023/03/30 03:30:03;;;;;;;5.50;1.23;;;;;;;;;;4944468;28;20262;-66
2023/03/30 03:32:33;;;;;;;7.80;1.20;;;;;;;;;;4953771;28;20065;-66
2023/03/30 03:35:02;;;;;;;5.20;1.10;;;;;;;;;;4946620;28;20658;-66
2023/03/30 03:37:32;;;;;;;6.30;1.25;;;;;;;;;;4949943;28;20042;-66
2023/03/30 03:40:11;;;;;;;5.25;1.08;;;;;;;;;;4956141;28;20586;-66
2023/03/30 03:42:40;;;;;;;7.22;1.20;;;;;;;;;;4950695;28;20038;-66
2023/03/30 03:45:10;;;;;;;6.78;1.13;;;;;;;;;;4951388;28;20134;-67
2023/03/30 03:47:37;;;;;;;5.95;1.30;;;;;;;;;;4932520;28;20081;-66
2023/03/30 03:50:08;;;;;;;7.35;1.40;;;;;;;;;;4952028;28;20027;-67
2023/03/30 03:52:38;;;;;;;5.93;1.65;;;;;;;;;;4944962;28;20485;-66
2023/03/30 03:55:07;;;;;;;7.13;1.98;;;;;;;;;;4952912;28;20084;-65
2023/03/30 03:57:39;;;;;;;11.25;2.65;;;;;;;;;;4942014;28;20585;-65
2023/03/30 04:00:14;;;;;;;10.60;2.80;;;;;;;;;;4955475;28;20467;-65
2023/03/30 04:03:04;;;;;;;8.67;2.80;;;;;;;;;;4948532;28;20108;-66
2023/03/30 04:05:32;;;;;;;9.85;2.95;;;;;;;;;;4931937;28;20479;-67
2023/03/30 04:08:01;;;;;;;9.10;2.65;;;;;;;;;;4948657;28;20189;-65
2023/03/30 04:10:30;;;;;;;8.23;2.63;;;;;;;;;;4935235;28;20064;-66
2023/03/30 04:12:58;;;;;;;8.35;2.08;;;;;;;;;;4944217;28;20496;-67
2023/03/30 04:15:27;;;;;;;9.18;2.60;;;;;;;;;;4939286;28;20369;-65
2023/03/30 04:17:56;;;;;;;9.65;2.47;;;;;;;;;;4943695;28;20448;-66
2023/03/30 04:20:30;;;;;;;9.25;2.08;;;;;;;;;;4950375;28;20720;-65
2023/03/30 04:23:00;;;;;;;6.85;1.63;;;;;;;;;;4943348;28;20330;-66
2023/03/30 04:25:29;;;;;;;8.55;2.20;;;;;;;;;;4950550;28;20038;-66
2023/03/30 04:27:57;;;;;;;7.85;2.00;;;;;;;;;;4944934;28;20893;-66
2023/03/30 04:30:29;;;;;;;10.35;2.50;;;;;;;;;;4945833;28;20057;-66
2023/03/30 04:33:08;;;;;;;10.52;2.47;;;;;;;;;;4933045;28;20041;-66
2023/03/30 04:35:35;;;;;;;10.50;2.70;;;;;;;;;;4927681;28;20142;-66
2023/03/30 04:38:03;;;;;;;7.88;2.38;;;;;;;;;;4943893;28;20412;-68
2023/03/30 04:40:31;;;;;;;8.30;2.00;;;;;;;;;;4943398;28;20038;-66
2023/03/30 04:43:03;;;;;;;6.93;1.60;;;;;;;;;;4907189;29;20055;-66
2023/03/30 04:45:32;;;;;;;7.68;1.55;;;;;;;;;;4907704;29;20066;-66
2023/03/30 04:47:59;;;;;;;8.50;1.90;;;;;;;;;;4909324;29;20055;-65
2023/03/30 04:50:27;;;;;;;10.15;2.25;;;;;;;;;;4911532;29;20079;-66
2023/03/30 04:52:55;;;;;;;8.30;2.03;;;;;;;;;;4910061;29;22025;-66
2023/03/30 04:55:23;;;;;;;13.05;2.30;;;;;;;;;;4915943;29;20796;-65
2023/03/30 04:57:51;;;;;;;22.00;3.05;;;;;;;;;;4911588;29;20553;-66
2023/03/30 05:00:19;;;;;;;15.85;2.45;;;;;;;;;;4909432;29;20471;-67
2023/03/30 05:02:46;;;;;;;18.40;4.18;;;;;;;;;;4909555;29;20043;-65
2023/03/30 05:05:15;;;;;;;15.77;3.90;;;;;;;;;;4914241;29;20048;-66
2023/03/30 05:07:43;;;;;;;11.77;2.70;;;;;;;;;;4906569;29;20030;-66
2023/03/30 05:10:10;;;;;;;12.32;2.50;;;;;;;;;;4895143;29;20059;-66
2023/03/30 05:12:39;;;;;;;12.77;2.67;;;;;;;;;;4903002;29;20353;-66
2023/03/30 05:15:08;;;;;;;13.80;2.70;;;;;;;;;;4911305;29;20686;-67
2023/03/30 05:17:55;;;;;;;19.92;3.20;;;;;;;;;;4912348;29;20486;-66
2023/03/30 05:20:24;;;;;;;14.95;2.63;;;;;;;;;;4910471;29;20126;-66
2023/03/30 05:22:52;;;;;;;16.60;2.45;;;;;;;;;;4911465;29;20036;-66
2023/03/30 05:25:21;;;;;;;11.98;2.30;;;;;;;;;;4912941;28;20078;-66
2023/03/30 05:27:50;;;;;;;8.80;2.25;;;;;;;;;;4944166;28;20043;-66
2023/03/30 05:30:17;;;;;;;9.05;1.92;;;;;;;;;;4956133;28;20437;-67
2023/03/30 05:32:46;;;;;;;13.30;2.25;;;;;;;;;;4952348;28;20038;-67
2023/03/30 05:35:14;;;;;;;17.20;2.75;;;;;;;;;;4958597;28;20041;-66
2023/03/30 05:37:42;;;;;;;12.68;2.75;;;;;;;;;;4935680;28;20034;-67
2023/03/30 05:40:12;;;;;;;14.38;2.60;;;;;;;;;;4938004;28;20119;-66
2023/03/30 05:42:39;;;;;;;11.90;2.65;;;;;;;;;;4939770;28;20067;-65
2023/03/30 05:45:08;;;;;;;10.35;2.30;;;;;;;;;;4949616;28;20030;-66
2023/03/30 05:47:36;;;;;;;13.57;2.35;;;;;;;;;;4945258;28;20050;-67
2023/03/30 05:50:03;;;;;;;11.48;2.20;;;;;;;;;;4932437;28;20436;-66
2023/03/30 05:52:31;;;;;;;12.27;2.30;;;;;;;;;;4932369;28;20113;-67
2023/03/30 05:54:58;;;;;;;7.03;2.00;;;;;;;;;;4943385;28;21200;-67
2023/03/30 05:57:24;;;;;;;10.60;2.28;;;;;;;;;;4932109;28;20031;-67
2023/03/30 05:59:52;;;;;;;10.45;2.75;;;;;;;;;;4945427;28;20425;-68
2023/03/30 06:02:21;;;;;;;12.85;2.55;;;;;;;;;;4932011;28;20073;-66
2023/03/30 06:04:48;;;;;;;12.85;3.33;;;;;;;;;;4945568;28;20031;-67
2023/03/30 06:07:17;;;;;;;14.23;3.40;;;;;;;;;;4943821;28;20496;-67
2023/03/30 06:09:44;;;;;;;11.88;2.65;;;;;;;;;;4938257;28;20374;-66
2023/03/30 06:12:11;;;;;;;16.13;3.60;;;;;;;;;;4945469;28;20049;-66
2023/03/30 06:14:39;;;;;;;14.57;4.35;;;;;;;;;;4943844;28;20045;-66
2023/03/30 06:17:07;;;;;;;14.38;3.65;;;;;;;;;;4950575;28;20031;-66
2023/03/30 06:19:35;;;;;;;11.95;3.38;;;;;;;;;;4950280;28;20122;-66
2023/03/30 06:22:02;;;;;;;13.70;4.28;;;;;;;;;;4944574;28;20038;-66
2023/03/30 06:24:30;;;;;;;13.05;4.28;;;;;;;;;;4942120;28;20031;-68
2023/03/30 06:27:00;;;;;;;13.52;4.13;;;;;;;;;;4942057;28;20134;-68
2023/03/30 06:29:29;;;;;;;16.08;4.32;;;;;;;;;;4930691;28;20070;-66
2023/03/30 06:31:57;;;;;;;16.63;4.75;;;;;;;;;;4928336;28;20386;-66
2023/03/30 06:34:25;;;;;;;15.32;5.55;;;;;;;;;;4948479;28;20362;-66
2023/03/30 06:36:54;;;;;;;15.90;5.50;;;;;;;;;;4941019;28;20031;-66
2023/03/30 06:39:21;;;;;;;17.20;5.15;;;;;;;;;;4928851;28;20035;-67
2023/03/30 06:41:48;;;;;;;13.63;4.88;;;;;;;;;;4924466;28;20035;-66
2023/03/30 06:44:16;;;;;;;12.70;4.10;;;;;;;;;;4943545;28;20152;-66
2023/03/30 06:46:45;;;;;;;13.48;3.97;;;;;;;;;;4926092;28;20031;-65
2023/03/30 06:49:12;;;;;;;19.88;8.25;;;;;;;;;;4945199;28;20499;-65
2023/03/30 06:51:38;;;;;;;18.40;5.95;;;;;;;;;;4938550;28;20058;-66
2023/03/30 06:54:05;;;;;;;;;;;;;;;;;;4914900;28;20124;-66
2023/03/30 06:56:33;;;;;;;15.10;4.70;;;;;;;;;;4944496;28;19914;-66
2023/03/30 06:59:01;;;;;;;13.80;3.78;;;;;;;;;;4944797;28;20019;-67
2023/03/30 07:01:31;;;;;;;15.25;3.80;;;;;;;;;;4948644;28;20679;-66
2023/03/30 07:03:58;;;;;;;15.35;4.78;;;;;;;;;;4940327;28;20515;-66
2023/03/30 07:06:27;;;;;;;15.77;5.20;;;;;;;;;;4944629;28;20034;-66
2023/03/30 07:08:56;;;;;;;17.98;5.45;;;;;;;;;;4942999;28;20034;-66
2023/03/30 07:11:25;;;;;;;19.35;5.30;;;;;;;;;;4944771;28;20474;-66
2023/03/30 07:13:57;;;;;;;17.17;5.15;;;;;;;;;;4927521;28;20077;-67
2023/03/30 07:16:25;;;;;;;17.90;4.65;;;;;;;;;;4947728;28;20061;-67
2023/03/30 07:18:53;;;;;;;19.15;4.90;;;;;;;;;;4925768;28;20054;-67
2023/03/30 07:21:20;;;;;;;24.30;5.43;;;;;;;;;;4945512;28;20031;-67
2023/03/30 07:23:48;;;;;;;17.90;6.20;;;;;;;;;;4927343;28;20066;-66
2023/03/30 07:26:15;;;;;;;20.77;5.07;;;;;;;;;;4930071;28;20035;-67
2023/03/30 07:28:44;;;;;;;16.85;4.93;;;;;;;;;;4927381;28;20179;-66
2023/03/30 07:31:13;;;;;;;18.98;5.47;;;;;;;;;;4914606;28;20134;-67
2023/03/30 07:33:40;;;;;;;17.83;5.18;;;;;;;;;;4927962;28;20042;-67
2023/03/30 07:36:10;;;;;;;19.90;5.40;;;;;;;;;;4949364;28;20034;-67
2023/03/30 07:38:38;;;;;;;19.17;5.35;;;;;;;;;;4944175;28;20086;-67
2023/03/30 07:41:11;;;;;;;20.45;5.03;;;;;;;;;;4941720;28;20702;-67
2023/03/30 07:43:39;;;;;;;20.20;4.65;;;;;;;;;;4944368;28;20094;-67
2023/03/30 07:46:11;;;;;;;19.45;5.38;;;;;;;;;;4913303;28;20504;-67
2023/03/30 07:48:39;;;;;;;17.48;5.18;;;;;;;;;;4940115;28;20055;-67
2023/03/30 07:51:11;;;;;;;19.45;5.03;;;;;;;;;;4945028;28;20154;-67
2023/03/30 07:53:39;;;;;;;18.10;4.25;;;;;;;;;;4925248;28;20623;-66
2023/03/30 07:56:07;;;;;;;13.50;3.80;;;;;;;;;;4944069;28;20335;-67
2023/03/30 07:58:35;;;;;;;13.38;4.15;;;;;;;;;;4929173;28;20039;-66
2023/03/30 08:01:04;;;;;;;15.88;4.18;;;;;;;;;;4944908;28;20035;-67
2023/03/30 08:03:35;;;;;;;13.13;3.85;;;;;;;;;;4945378;28;20362;-67
2023/03/30 08:06:09;;;;;;;12.20;3.90;;;;;;;;;;4924481;28;20811;-66
2023/03/30 08:08:39;;;;;;;16.55;3.65;;;;;;;;;;4909974;28;20501;-67
2023/03/30 08:11:09;;;;;;;15.35;4.45;;;;;;;;;;4920740;28;20036;-66
2023/03/30 08:13:37;;;;;;;17.60;4.60;;;;;;;;;;4923052;28;20675;-66
2023/03/30 08:16:05;;;;;;;11.80;4.13;;;;;;;;;;4907840;28;20038;-66
2023/03/30 08:18:35;;;;;;;13.75;3.90;;;;;;;;;;4910893;28;20043;-66
2023/03/30 08:21:03;;;;;;;14.85;3.83;;;;;;;;;;4908264;28;20035;-66
2023/03/30 08:23:32;;;;;;;12.75;3.63;;;;;;;;;;4926074;28;20035;-66
2023/03/30 08:26:00;;;;;;;16.00;3.92;;;;;;;;;;4903412;28;20448;-66
2023/03/30 08:28:28;;;;;;;32.03;15.18;;;;;;;;;;4921763;28;20047;-67
2023/03/30 08:31:02;;;;;;;21.98;8.45;;;;;;;;;;4905608;28;20051;-68
2023/03/30 08:33:28;;;;;;;16.65;4.93;;;;;;;;;;4913390;28;20495;-67
2023/03/30 08:35:56;;;;;;;;;;;;;;;;;;4921919;28;20043;-66
2023/03/30 08:38:25;;;;;;;18.27;3.60;;;;;;;;;;4905152;28;20357;-66
2023/03/30 08:40:54;;;;;;;13.23;3.38;;;;;;;;;;4920701;28;20092;-66
2023/03/30 08:43:57;;;;;;;14.60;3.70;;;;;;;;;;4924661;28;20501;-66
2023/03/30 08:46:24;;;;;;;12.88;3.70;;;;;;;;;;4907367;28;20035;-67
2023/03/30 08:48:52;;;;;;;16.55;3.83;;;;;;;;;;4905683;28;20047;-67
2023/03/30 08:51:27;;;;;;;15.30;3.78;;;;;;;;;;4922467;28;20202;-66
2023/03/30 08:54:04;;;;;;;15.38;3.88;;;;;;;;;;4920363;28;20039;-66
2023/03/30 08:56:46;;;;;;;16.67;4.00;;;;;;;;;;4932558;28;20047;-66
2023/03/30 08:59:31;;;;;;;13.95;3.35;;;;;;;;;;4945245;28;20221;-66
2023/03/30 09:02:07;;;;;;;18.40;4.43;;;;;;;;;;4927565;28;20406;-66
2023/03/30 09:05:00;;;;;;;15.98;4.45;;;;;;;;;;4949313;28;20471;-66
2023/03/30 09:07:30;;;;;;;14.73;3.83;;;;;;;;;;4947673;28;20577;-67
2023/03/30 09:10:00;;;;;;;17.45;4.18;;;;;;;;;;4928420;28;20691;-68
2023/03/30 09:12:55;;;;;;;14.23;3.42;;;;;;;;;;4934590;28;20033;-68
2023/03/30 09:15:34;;;;;;;14.43;3.35;;;;;;;;;;4932043;28;20541;-68
2023/03/30 09:18:21;;;;;;;15.88;3.95;;;;;;;;;;4947488;28;20541;-68
2023/03/30 09:20:50;;;;;;;14.98;3.47;;;;;;;;;;4947194;28;20038;-69
2023/03/30 09:23:18;;;;;;;17.38;3.90;;;;;;;;;;4932822;28;20025;-66
2023/03/30 09:25:52;;;;;;;20.77;4.32;;;;;;;;;;4947168;28;20063;-66
2023/03/30 09:28:34;;;;;;;16.77;3.47;;;;;;;;;;4947942;28;20441;-66
2023/03/30 09:31:20;;;;;;;14.73;3.90;;;;;;;;;;4949358;28;20090;-67
2023/03/30 09:34:13;;;;;;;14.15;3.33;;;;;;;;;;4930472;28;20038;-67
2023/03/30 09:36:47;;;;;;;16.60;3.92;;;;;;;;;;4939666;28;20047;-68
2023/03/30 09:39:19;;;;;;;15.93;3.70;;;;;;;;;;4947014;28;20042;-67
2023/03/30 09:42:04;;;;;;;15.90;4.00;;;;;;;;;;4947157;28;20031;-67
2023/03/30 09:44:50;;;;;;;20.58;4.45;;;;;;;;;;4948595;28;20304;-69
2023/03/30 09:47:28;;;;;;;24.27;3.83;;;;;;;;;;4948843;28;20057;-68
2023/03/30 09:50:06;;;;;;;18.08;4.25;;;;;;;;;;4938964;28;20420;-68
2023/03/30 09:52:36;;;;;;;16.10;3.75;;;;;;;;;;4949402;28;20504;-66
2023/03/30 09:55:20;;;;;;;18.02;3.95;;;;;;;;;;4946000;28;20035;-66
2023/03/30 09:57:53;;;;;;;16.27;3.63;;;;;;;;;;4943450;28;20035;-68
2023/03/30 10:00:31;;;;;;;14.55;3.80;;;;;;;;;;4930744;28;20050;-68
2023/03/30 10:03:01;;;;;;;13.50;3.20;;;;;;;;;;4945584;28;20431;-67
2023/03/30 10:05:31;;;;;;;13.32;3.35;;;;;;;;;;4938608;28;20042;-68
2023/03/30 10:07:59;;;;;;;16.45;3.75;;;;;;;;;;4942657;28;20501;-66
2023/03/30 10:10:32;;;;;;;19.50;3.53;;;;;;;;;;4933332;28;20043;-66
2023/03/30 10:13:16;;;;;;;14.32;3.40;;;;;;;;;;4946371;28;20062;-67
2023/03/30 10:15:44;;;;;;;16.95;3.25;;;;;;;;;;4945375;28;20030;-68
2023/03/30 10:18:30;;;;;;;12.48;2.38;;;;;;;;;;4946916;28;20563;-65
2023/03/30 10:21:01;;;;;;;15.57;3.08;;;;;;;;;;4929353;28;20434;-66
2023/03/30 10:23:38;;;;;;;14.30;2.95;;;;;;;;;;4948516;28;20049;-65
2023/03/30 10:26:14;;;;;;;12.27;2.60;;;;;;;;;;4944301;28;20440;-66
2023/03/30 10:28:52;;;;;;;12.37;2.60;;;;;;;;;;4945269;28;20038;-66
2023/03/30 10:31:21;;;;;;;12.77;2.90;;;;;;;;;;4948040;28;20387;-69
2023/03/30 10:33:49;;;;;;;15.00;3.70;;;;;;;;;;4945999;28;20031;-68
2023/03/30 10:36:19;;;;;;;9.75;2.65;;;;;;;;;;4932021;28;20603;-65
2023/03/30 10:38:46;;;;;;;13.63;2.78;;;;;;;;;;4942773;28;20035;-66
2023/03/30 10:41:22;;;;;;;15.25;3.05;;;;;;;;;;4949550;28;20455;-65
2023/03/30 10:43:54;;;;;;;12.50;3.03;;;;;;;;;;4928318;28;20031;-64
2023/03/30 10:46:23;;;;;;;13.73;3.10;;;;;;;;;;4931560;28;20038;-67
2023/03/30 10:49:02;;;;;;;20.63;3.83;;;;;;;;;;4943410;28;20054;-66
2023/03/30 10:51:48;;;;;;;18.83;3.83;;;;;;;;;;4948764;28;20031;-68
2023/03/30 10:54:33;;;;;;;17.20;3.35;;;;;;;;;;4948696;28;20064;-66
2023/03/30 10:57:12;;;;;;;16.10;3.27;;;;;;;;;;4943502;28;20057;-66
2023/03/30 10:59:44;;;;;;;15.80;3.25;;;;;;;;;;4945948;28;20057;-68
2023/03/30 11:02:25;;;;;;;15.32;3.33;;;;;;;;;;4948652;28;20082;-66
2023/03/30 11:05:11;;;;;;;13.57;3.45;;;;;;;;;;4926840;28;20038;-66
2023/03/30 11:07:38;;;;;;;;;;;;;;;;;;4943848;28;20034;-69
2023/03/30 11:10:10;;;;;;;14.90;3.22;;;;;;;;;;4950147;28;19921;-65
2023/03/30 11:12:42;;;;;;;17.27;3.35;;;;;;;;;;4945110;28;20035;-66
2023/03/30 11:15:12;;;;;;;13.20;3.30;;;;;;;;;;4925159;28;20039;-65
2023/03/30 11:17:54;;;;;;;15.70;3.35;;;;;;;;;;4926575;28;20034;-66
2023/03/30 11:20:27;;;;;;;13.40;3.10;;;;;;;;;;4946692;28;20113;-67
2023/03/30 11:23:15;;;;;;;13.00;3.20;;;;;;;;;;4943014;28;20125;-68
2023/03/30 11:26:07;;;;;;;12.90;3.40;;;;;;;;;;4925567;28;20039;-65
2023/03/30 11:28:36;;;;;;;11.70;3.03;;;;;;;;;;4884285;29;20635;-66
2023/03/30 11:31:31;;;;;;;14.73;3.53;;;;;;;;;;4881331;29;20083;-64
2023/03/30 11:34:34;;;;;;;14.27;3.53;;;;;;;;;;4870209;29;20043;-66
2023/03/30 11:37:19;;;;;;;15.55;3.42;;;;;;;;;;4880745;29;20043;-65
2023/03/30 11:39:55;;;;;;;19.42;3.20;;;;;;;;;;4877596;29;20096;-66
2023/03/30 11:42:25;;;;;;;11.85;2.85;;;;;;;;;;4880088;29;20043;-68
2023/03/30 11:44:54;;;;;;;11.60;2.90;;;;;;;;;;4875911;29;20157;-66
2023/03/30 11:47:39;;;;;;;18.13;3.83;;;;;;;;;;4881968;29;20040;-66
2023/03/30 11:50:26;;;;;;;24.90;3.78;;;;;;;;;;4885303;29;20128;-66
2023/03/30 11:53:11;;;;;;;15.65;3.42;;;;;;;;;;4880539;29;20051;-66
2023/03/30 11:55:49;;;;;;;16.52;3.45;;;;;;;;;;4877769;29;20044;-66
2023/03/30 11:58:37;;;;;;;12.70;3.20;;;;;;;;;;4882887;29;20040;-65
2023/03/30 12:01:22;;;;;;;14.45;3.50;;;;;;;;;;4882908;29;20294;-67
2023/03/30 12:03:52;;;;;;;16.10;3.35;;;;;;;;;;4879617;29;20187;-66
2023/03/30 12:06:48;;;;;;;15.35;3.30;;;;;;;;;;4918527;28;20713;-67
2023/03/30 12:09:34;;;;;;;13.43;3.38;;;;;;;;;;4946622;28;20797;-66
2023/03/30 12:12:10;;;;;;;12.45;3.00;;;;;;;;;;4945107;28;20058;-65
2023/03/30 12:14:52;;;;;;;10.73;2.95;;;;;;;;;;4924954;28;20034;-67
2023/03/30 12:17:37;;;;;;;15.77;3.63;;;;;;;;;;4930272;28;20030;-66
2023/03/30 12:20:09;;;;;;;16.35;3.42;;;;;;;;;;4943311;28;20031;-65
2023/03/30 12:22:56;;;;;;;14.93;3.30;;;;;;;;;;4941386;28;20161;-66
2023/03/30 12:25:40;;;;;;;13.52;3.10;;;;;;;;;;4947037;28;20479;-66
2023/03/30 12:28:19;;;;;;;12.90;3.80;;;;;;;;;;4923796;28;20469;-67
2023/03/30 12:30:58;;;;;;;14.57;3.70;;;;;;;;;;4941354;28;20042;-67
2023/03/30 12:33:34;;;;;;;13.25;3.40;;;;;;;;;;4925005;28;20045;-67
2023/03/30 12:36:25;;;;;;;14.80;3.78;;;;;;;;;;4926169;28;20521;-67
2023/03/30 12:39:04;;;;;;;13.48;3.30;;;;;;;;;;4924236;28;20042;-66
2023/03/30 12:41:47;;;;;;;14.32;3.30;;;;;;;;;;4937299;28;20038;-65
2023/03/30 12:44:22;;;;;;;13.65;3.53;;;;;;;;;;4923272;28;20074;-67
2023/03/30 12:46:48;;;;;;;;;;;;;;;;;;4939551;28;20085;-67
2023/03/30 12:49:16;;;;;;;14.95;3.85;;;;;;;;;;4940898;28;20289;-66
2023/03/30 12:52:01;;;;;;;16.77;3.50;;;;;;;;;;4943401;28;20034;-65
2023/03/30 12:54:47;;;;;;;14.23;3.22;;;;;;;;;;4944320;28;20320;-65
2023/03/30 12:57:33;;;;;;;12.65;3.33;;;;;;;;;;4942305;28;20047;-65
2023/03/30 13:00:18;;;;;;;15.45;3.20;;;;;;;;;;4945376;28;20026;-67
2023/03/30 13:03:05;;;;;;;11.70;3.10;;;;;;;;;;4925203;28;20045;-65
2023/03/30 13:05:39;;;;;;;14.70;3.45;;;;;;;;;;4943463;28;20078;-65
2023/03/30 13:08:37;;;;;;;13.98;3.47;;;;;;;;;;4928431;28;20308;-67
2023/03/30 13:11:08;;;;;;;12.35;3.15;;;;;;;;;;4926157;28;20138;-67
2023/03/30 13:13:50;;;;;;;11.93;3.47;;;;;;;;;;4916279;28;20047;-67
2023/03/30 13:16:37;;;;;;;13.07;3.15;;;;;;;;;;4942801;28;20105;-66
2023/03/30 13:19:31;;;;;;;14.63;3.88;;;;;;;;;;4943483;28;20517;-65
2023/03/30 13:21:58;;;;;;;11.98;2.97;;;;;;;;;;4878264;29;20147;-67
2023/03/30 13:24:30;;;;;;;13.80;2.92;;;;;;;;;;4860934;29;20167;-68
2023/03/30 13:27:18;;;;;;;14.90;3.25;;;;;;;;;;4884935;29;20056;-67
2023/03/30 13:30:05;;;;;;;13.73;3.33;;;;;;;;;;4865424;29;20492;-67
2023/03/30 13:32:49;;;;;;;13.10;2.90;;;;;;;;;;4866870;29;20037;-66
2023/03/30 13:35:34;;;;;;;13.73;3.33;;;;;;;;;;4883254;29;20456;-66
2023/03/30 13:38:19;;;;;;;14.03;3.20;;;;;;;;;;4879032;29;20666;-66
2023/03/30 13:40:49;;;;;;;15.20;3.30;;;;;;;;;;4872899;29;20534;-65
2023/03/30 13:43:36;;;;;;;13.10;2.90;;;;;;;;;;4882093;29;20407;-66
2023/03/30 13:46:12;;;;;;;10.98;3.20;;;;;;;;;;4874830;29;20080;-66
2023/03/30 13:48:57;;;;;;;11.32;2.85;;;;;;;;;;4881038;29;20064;-67
2023/03/30 13:51:26;;;;;;;14.13;3.10;;;;;;;;;;4884597;29;20299;-64
2023/03/30 13:53:57;;;;;;;12.20;3.17;;;;;;;;;;4879533;29;20047;-66
2023/03/30 13:56:26;;;;;;;11.88;3.13;;;;;;;;;;4882016;29;21155;-67
2023/03/30 13:59:32;;;;;;;14.05;3.40;;;;;;;;;;4915910;28;20524;-66
2023/03/30 14:02:00;;;;;;;15.68;3.60;;;;;;;;;;4843440;29;20033;-66
2023/03/30 14:04:31;;;;;;;15.23;3.40;;;;;;;;;;4851609;29;20489;-67
2023/03/30 14:07:04;;;;;;;13.27;4.20;;;;;;;;;;4840093;29;20448;-67
2023/03/30 14:09:31;;;;;;;13.32;3.50;;;;;;;;;;4863610;29;20470;-68
2023/03/30 14:12:11;;;;;;;14.68;3.40;;;;;;;;;;4861656;29;20132;-67
2023/03/30 14:14:48;;;;;;;12.65;2.90;;;;;;;;;;4861859;29;20045;-67
2023/03/30 14:17:20;;;;;;;14.55;3.20;;;;;;;;;;4849007;29;20060;-66
2023/03/30 14:20:15;;;;;;;11.57;3.05;;;;;;;;;;4862528;29;20045;-67
2023/03/30 14:22:44;;;;;;;13.40;3.20;;;;;;;;;;4849171;29;20041;-67
2023/03/30 14:25:29;;;;;;;14.68;3.10;;;;;;;;;;4833116;29;20730;-66
2023/03/30 14:27:58;;;;;;;12.48;3.28;;;;;;;;;;4860079;29;20068;-66
2023/03/30 14:30:30;;;;;;;13.15;3.20;;;;;;;;;;4866123;29;20503;-66
2023/03/30 14:33:12;;;;;;;14.80;3.35;;;;;;;;;;4860228;29;20092;-67
2023/03/30 14:35:42;;;;;;;13.30;2.88;;;;;;;;;;4887966;28;20365;-66
2023/03/30 14:38:21;;;;;;;14.98;2.80;;;;;;;;;;4927541;28;20042;-67
2023/03/30 14:40:49;;;;;;;15.75;2.65;;;;;;;;;;4942239;28;20123;-67
2023/03/30 14:43:31;;;;;;;12.85;3.15;;;;;;;;;;4943983;28;20043;-66
2023/03/30 14:46:03;;;;;;;12.57;3.13;;;;;;;;;;4941186;28;20397;-68
2023/03/30 14:48:35;;;;;;;13.07;3.45;;;;;;;;;;4913101;28;20122;-68
2023/03/30 14:51:03;;;;;;;13.55;3.35;;;;;;;;;;4944724;28;20229;-67
2023/03/30 14:53:33;;;;;;;13.52;3.10;;;;;;;;;;4927255;28;20449;-65
2023/03/30 14:56:00;;;;;;;13.20;2.90;;;;;;;;;;4943425;28;21046;-66
2023/03/30 14:58:30;;;;;;;12.15;3.03;;;;;;;;;;4943920;28;20027;-66
2023/03/30 15:01:05;;;;;;;13.65;3.10;;;;;;;;;;4908785;28;20162;-66
2023/03/30 15:03:33;;;;;;;12.27;2.90;;;;;;;;;;4926933;28;20445;-66
2023/03/30 15:06:05;;;;;;;14.07;3.30;;;;;;;;;;4944041;28;20281;-65
2023/03/30 15:08:35;;;;;;;13.25;3.00;;;;;;;;;;4923015;28;20442;-66
2023/03/30 15:11:11;;;;;;;10.48;3.08;;;;;;;;;;4928139;28;20091;-65
2023/03/30 15:13:51;;;;;;;14.23;3.22;;;;;;;;;;4908669;28;20547;-66
2023/03/30 15:16:26;;;;;;;16.02;3.75;;;;;;;;;;4927056;28;20038;-67